Ride Results

Southern Crosse 1 (28-07-2013)
Ride distance: 80.0 km

Outcomes - Southern Crosse 1 (28-07-2013)
Division No. of Entries Retired / DNE Completed Withdrawn Ineligible V/O Percentage Completed
HW 10 - 9 - - 1 90.00%
MW 16 - 13 1 - 2 81.25%
LW 14 - 14 - - - 100.00%
JN 5 - 4 1 - - 80.00%
Totals 45 - 40 2 - 3 88.89%
Results - Southern Crosse 1 (28-07-2013)
No. Rider Horse Place Time Leg Speeds Total
Km/Hr
H/R bpm
Heavyweight
197 Dennis Moore Boss 1 4:35:00 18.6, 16.4 17.45 37, 49, 50 (Avg:49)
231 Tim Wall Musical Gully Samba 2 (BC) 4:55:00 17.5, 15.1 16.27 35, 43, 46 (Avg:44)
65 Carl Adamson Sundown Park Miss Jacob 3 5:21:00 16.5, 13.6 14.95 29, 38, 42 (Avg:40)
194 Zeke Verspaandonk Mullungdung Saabrina 4 5:24:00 15.1, 14.4 14.81 36, 40, 46 (Avg:43)
82 Jarrod Robinson La Bomba 5 6:00:00 13.3, 13.3 13.33 33, 48, 56 (Avg:52)
754 Russell Robinson Clovelly Park Shazeem 6 6:09:00 13.0, 12.9 13.01 44, 42, 45 (Avg:43)
167 Bill Verspaandonk Coleview Phantom 7 6:17:00 12.9, 12.5 12.73 39, 54, 51 (Avg:52)
255 Julie Lofts Ethereal Park Shadow Dancer 8 6:40:00 12.9, 11.2 12.00 35, 48, 49 (Avg:48)
58 Dianne Tobin Chimera 9 7:16:00 11.2, 10.7 11.01 37, 40, 55 (Avg:47)
177 Vincent Comer Bobby Lame L1 0:00:00 13.3 - 39, 39 (Avg:39)
Middleweight
351 Steve Blackhurst Weerina Arabian Princess 1 (BC) 4:15:00 18.6, 19.0 18.82 35, 40, 41 (Avg:40)
757 Tammy Woodgate Castlebar Galaxy 2 4:24:00 18.6, 17.7 18.18 34, 50, 51 (Avg:50)
67 John Osboldstone Shakira 3 4:35:05 16.9, 17.9 17.45 34, 45, 52 (Avg:48)
238 Kerri Kingston Mytkyina 4 4:35:10 17.4, 17.4 17.44 34, 37, 44 (Avg:40)
168 Trish VanDonk Mullungdung Begorrah 5 5:24:00 15.1, 14.4 14.81 39, 42, 55 (Avg:48)
219 Caroline Noble Top Fancy Trianna 6 6:00:00 13.3, 13.3 13.33 42, 48, 52 (Avg:50)
131 Simon Thomas Rocky Point Black Xanthanite 7 6:07:00 13.1, 13.0 13.08 36, 39, 42 (Avg:40)
89 Sheryl Herbert Krishlah Maleeka 8 6:09:00 13.0, 12.9 13.01 43, 46, 48 (Avg:47)
755 Jessica Remfry Music Maker 8 6:09:00 13.0, 12.9 13.01 36, 43, 51 (Avg:47)
192 Tabitha Verspaandonk Jayhal Shaazam 10 6:17:00 12.9, 12.5 12.73 34, 42, 42 (Avg:42)
77 Trish Reeves Matta Mia Daniel 11 6:29:00 13.3, 11.4 12.34 32, 40, 44 (Avg:42)
138 Emma Sellens San Ella Nader 11 6:29:00 13.1, 11.5 12.34 32, 38, 40 (Avg:39)
756 Marieke Featonby Fairview Ethereal Dream 13 6:44:00 12.9, 11.0 11.88 34, 41, 39 (Avg:40)
220 Danny Ellerton Arabec Eskandah Lame L2 0:00:00 12.9, 12.3 - 37, 37, 40 (Avg:38)
228 Leonie Goode Kirrani's Verifire Lame L1 0:00:00 13.1 - 35, 44 (Avg:44)
175 Dianne Leehane Shah Withdrawn L1 0:00:00 - - 30, 35 (Avg:35)
Lightweight
22 Sarah McLaughlin Elphyn Shafyre 1 4:09:40 16.6, 22.7 19.23 28, 42, 48 (Avg:45)
113 Lisa Worden Clarendon Raziah 2 4:09:42 17.5, 21.2 19.22 39, 46, 55 (Avg:50)
14 Katrina Griggs Sandine Jazira 3 (BC) 4:10:00 17.5, 21.2 19.20 36, 42, 44 (Avg:43)
250 Kerry Alderton Mireen Yasmeera 4 4:14:00 18.6, 19.1 18.90 41, 44, 45 (Avg:44)
11 Rohan Stanes Flying Circus Ring Master 5 4:48:00 16.2, 17.1 16.67 36, 38, 45 (Avg:41)
245 Melinda Stevens Shuja Bint Melika 5 4:48:00 16.2, 17.1 16.67 30, 44, 48 (Avg:46)
63 Pamela Cox Castlebar Temeraire 7 5:30:00 14.7, 14.3 14.55 34, 36, 45 (Avg:40)
744 Shona Chila Leo 8 6:00:00 13.3, 13.3 13.33 35, 44, 49 (Avg:46)
91 Kim Noble Bacchante Spartacus 8 6:00:00 13.3, 13.3 13.33 44, 42, 45 (Avg:43)
151 Kasey Thomas Morundah Just Sharii 10 6:07:00 13.1, 13.0 13.08 27, 42, 46 (Avg:44)
758 Vivienne Reid Performance Park Abby's Surprise 11 6:21:00 13.3, 11.9 12.60 35, 43, 43 (Avg:43)
61 Lois Sharam Musical Gully Carousel 12 6:40:00 12.9, 11.2 12.00 31, 53, 58 (Avg:55)
759 Tanya Beacham Creswick Magdaleenah 13 7:10:00 12.9, 9.8 11.16 34, 38, 44 (Avg:41)
162 Linda Carney Chandler 14 7:16:00 11.2, 10.7 11.01 33, 41, 44 (Avg:42)
Junior
90 Alison Noble Springridge Locksley 1 5:50:00 13.3, 14.1 13.71 39, 48, 56 (Avg:52)
747 Charlie Chila Carluke Renato 2 6:00:00 13.3, 13.3 13.33 31, 33, 42 (Avg:37)
746 Kendall Noble Billy Gun 2 (BC) 6:00:00 13.3, 13.3 13.33 44, 43, 45 (Avg:44)
745 Jena Crowe Summit Park Shenay 4 7:16:00 11.2, 10.7 11.01 33, 39, 53 (Avg:46)
748 Ella Leehane Tarara Malone Withdrawn L1 0:00:00 - - 30, 43 (Avg:43)